Terminal Aerodrome Forecast
Issued by NWS Omaha/Valley, NE

Home | Current Version | Previous Version | Text Only | Print | Product List | Glossary On
Versions: 1 2 3 4 5 6 7 8 9 10 11 12 13 14 15 16 17 18 19 20 21 22 23 24 25 26 27 28 29 30
000
FTUS43 KOAX 191743
TAFOFK
TAF
KOFK 191743Z 1918/2018 15008KT P6SM SKC
     FM200300 15007KT P6SM VCTS BKN200CB
     FM200600 18009KT P6SM VCTS BKN250CB
     FM200900 18006KT P6SM SCT250=

USA.gov is the U.S. government's official web portal to all federal, state and local government web resources and services.